Time;durP1;ratioP1;P1;durP2;ratioP2;P2;SDS_P1;SDS_P2;PMS_P1;PMS_P2;Temp;Humidity;BMP_temperature;BMP_pressure;BME280_temperature;BME280_humidity;BME280_pressure;Samples;Min_cycle;Max_cycle;Signal;HPM_P1;HPM_P2
2021/04/03 06:00:14;;;;;;;13.55;8.05;;;;;;;4.42;67.28;99996.49;1752358;76;27464;31
2021/04/03 06:02:41;;;;;;;13.18;7.95;;;;;;;4.41;67.57;99998.38;1810795;79;25442;-53
2021/04/03 06:05:10;;;;;;;12.58;8.48;;;;;;;4.43;67.69;99998.90;1810837;79;25747;-55
2021/04/03 06:07:39;;;;;;;13.35;8.83;;;;;;;4.46;68.06;100010.41;1810909;79;25556;-53
2021/04/03 06:10:08;;;;;;;13.95;8.53;;;;;;;4.51;68.36;100006.88;1810817;79;25302;-53
2021/04/03 06:12:44;;;;;;;14.28;8.03;;;;;;;4.55;68.22;100010.63;1810854;79;25305;-50
2021/04/03 06:15:34;;;;;;;14.85;8.78;;;;;;;4.61;68.46;100006.83;1809128;79;25459;-52
2021/04/03 06:18:08;;;;;;;13.90;7.90;;;;;;;4.66;68.40;100012.70;1810852;79;25791;-52
2021/04/03 06:20:41;;;;;;;15.90;8.75;;;;;;;4.74;68.29;100008.11;1809325;79;25806;-51
2021/04/03 06:23:11;;;;;;;14.53;8.15;;;;;;;4.77;68.24;100002.20;1810700;78;25588;-50
2021/04/03 06:25:57;;;;;;;14.33;8.75;;;;;;;4.81;68.37;100005.13;1810854;79;25457;-54
2021/04/03 06:28:30;;;;;;;11.35;8.78;;;;;;;4.87;68.39;100002.69;1810880;79;25326;-53
2021/04/03 06:31:16;;;;;;;16.77;9.20;;;;;;;4.94;68.54;100007.72;1809800;79;25887;-52
2021/04/03 06:33:45;;;;;;;14.03;8.55;;;;;;;5.01;68.58;100009.57;1810689;79;25260;-53
2021/04/03 06:36:15;;;;;;;17.50;8.70;;;;;;;5.03;68.30;100010.88;1810913;78;25446;-51
2021/04/03 06:38:46;;;;;;;13.38;8.18;;;;;;;5.10;68.08;100006.55;1810820;79;25347;-50
2021/04/03 06:41:23;;;;;;;13.53;8.70;;;;;;;5.16;68.02;100011.32;1810876;79;25491;-50
2021/04/03 06:44:10;;;;;;;11.95;8.10;;;;;;;5.19;68.03;100005.41;1810791;79;25748;-48
2021/04/03 06:46:41;;;;;;;15.38;8.88;;;;;;;5.23;67.86;100010.48;1810676;79;25568;-50
2021/04/03 06:49:10;;;;;;;11.63;8.38;;;;;;;5.25;67.70;100009.66;1810969;79;25499;-52
2021/04/03 06:51:38;;;;;;;15.00;8.55;;;;;;;5.26;67.32;100009.11;1810852;79;25340;-49
2021/04/03 06:54:08;;;;;;;14.00;8.33;;;;;;;5.24;67.03;100018.25;1810752;79;25272;-53
2021/04/03 06:56:36;;;;;;;13.25;8.55;;;;;;;5.24;67.12;100014.23;1810772;79;25708;-51
2021/04/03 06:59:11;;;;;;;16.02;8.18;;;;;;;5.26;67.06;100018.50;1810716;79;25247;-52
2021/04/03 07:01:56;;;;;;;11.38;8.05;;;;;;;5.27;66.97;100026.27;1738915;80;25741;-50
2021/04/03 07:04:30;;;;;;;11.85;7.60;;;;;;;5.22;66.57;100027.64;1724396;83;43635;-50
2021/04/03 07:06:58;;;;;;;11.03;7.72;;;;;;;5.22;66.57;100037.03;1724670;83;25334;-53
2021/04/03 07:09:25;;;;;;;17.15;8.88;;;;;;;5.22;66.39;100031.67;1724642;83;25777;-52
2021/04/03 07:11:54;;;;;;;13.38;8.65;;;;;;;5.21;66.28;100034.08;1724483;83;25527;-49
2021/04/03 07:14:22;;;;;;;11.40;8.00;;;;;;;5.21;66.16;100037.58;1724829;83;25380;-50
2021/04/03 07:16:51;;;;;;;14.20;7.78;;;;;;;5.21;66.01;100040.26;1724635;83;25559;-50
2021/04/03 07:19:21;;;;;;;11.68;8.10;;;;;;;5.21;65.88;100042.94;1724723;83;25326;-48
2021/04/03 07:21:48;;;;;;;12.23;8.50;;;;;;;5.24;65.88;100052.30;1724578;83;25975;-50
2021/04/03 07:24:17;;;;;;;13.55;9.40;;;;;;;5.26;65.75;100046.14;1724584;83;25696;-51
2021/04/03 07:26:48;;;;;;;12.75;8.35;;;;;;;5.30;65.54;100054.42;1724756;83;25527;-50
2021/04/03 07:29:45;;;;;;;18.35;10.80;;;;;;;5.32;65.41;100056.28;1724673;83;25312;-51
2021/04/03 07:32:39;;;;;;;16.25;9.03;;;;;;;5.42;65.25;100061.56;1849432;76;34901;-49
2021/04/03 07:35:25;;;;;;;11.35;6.87;;;;;;;5.35;65.29;100063.77;1819689;78;25233;-53
2021/04/03 07:37:53;;;;;;;8.03;6.50;;;;;;;5.36;65.12;100070.20;1819625;78;25898;-50
2021/04/03 07:40:30;;;;;;;11.50;7.07;;;;;;;5.34;64.74;100076.91;1819840;78;25311;-51
2021/04/03 07:42:57;;;;;;;10.00;6.65;;;;;;;5.32;64.55;100089.80;1819544;78;25494;-52
2021/04/03 07:45:44;;;;;;;9.53;6.92;;;;;;;5.29;64.34;100092.48;1819533;78;25543;-50
2021/04/03 07:48:15;;;;;;;12.55;7.83;;;;;;;5.24;63.99;100089.84;1819642;78;25525;-50
2021/04/03 07:50:50;;;;;;;12.00;7.83;;;;;;;5.23;64.13;100098.98;1819687;78;26594;-50
2021/04/03 07:53:36;;;;;;;10.20;6.72;;;;;;;5.23;64.22;100105.13;1819423;78;25236;-51
2021/04/03 07:56:04;;;;;;;11.75;7.62;;;;;;;5.26;64.29;100101.63;1819575;78;25330;-50
2021/04/03 07:58:37;;;;;;;12.80;8.18;;;;;;;5.30;64.09;100110.19;1819592;78;25496;-54
2021/04/03 08:01:10;;;;;;;15.58;8.75;;;;;;;5.32;63.98;100109.91;1819615;78;25523;-54
2021/04/03 08:03:35;;;;;;;12.53;7.62;;;;;;;5.39;64.06;100115.77;1818148;78;28084;-50
2021/04/03 08:06:10;;;;;;;10.82;7.20;;;;;;;5.42;63.76;100120.58;1819486;78;25481;-53
2021/04/03 08:08:42;;;;;;;8.35;6.35;;;;;;;5.46;63.67;100118.14;1819525;78;25307;-53
2021/04/03 08:11:17;;;;;;;12.40;6.62;;;;;;;5.48;63.46;100115.42;1819529;78;25251;-53
2021/04/03 08:13:49;;;;;;;7.80;6.12;;;;;;;5.57;63.54;100127.73;1819700;78;25300;-50
2021/04/03 08:16:17;;;;;;;9.93;5.67;;;;;;;5.67;63.18;100129.52;1819657;78;26782;-50
2021/04/03 08:18:50;;;;;;;8.85;5.97;;;;;;;5.77;63.00;100134.80;1819589;78;25453;-51
2021/04/03 08:21:18;;;;;;;8.13;5.70;;;;;;;5.87;62.49;100144.67;1819483;78;25437;-50
2021/04/03 08:23:52;;;;;;;9.18;4.95;;;;;;;6.01;62.35;100144.84;1819426;78;25519;-54
2021/04/03 08:26:23;;;;;;;6.65;4.92;;;;;;;6.07;61.84;100137.81;1819737;78;25460;-52
2021/04/03 08:28:51;;;;;;;7.10;5.33;;;;;;;6.13;61.16;100140.72;1819353;78;26209;-51
2021/04/03 08:31:24;;;;;;;10.98;5.22;;;;;;;6.20;60.90;100144.42;1819293;78;25618;-51
2021/04/03 08:33:55;;;;;;;7.90;5.00;;;;;;;6.30;61.23;100146.19;1819473;78;25508;-50
2021/04/03 08:36:25;;;;;;;7.08;5.28;;;;;;;6.48;61.04;100150.05;1819622;78;25067;-52
2021/04/03 08:38:54;;;;;;;4.50;4.10;;;;;;;6.65;61.09;100143.67;1819574;78;25478;-51
2021/04/03 08:41:27;;;;;;;6.57;4.97;;;;;;;6.85;60.80;100152.61;1819732;78;25742;-52
2021/04/03 08:43:57;;;;;;;6.90;4.50;;;;;;;7.00;59.42;100156.98;1818877;78;25309;-51
2021/04/03 08:46:25;;;;;;;5.83;5.00;;;;;;;7.21;59.94;100157.53;1819184;78;25448;-52
2021/04/03 08:48:58;;;;;;;5.75;4.30;;;;;;;7.40;59.69;100152.95;1818890;78;25295;-53
2021/04/03 08:51:26;;;;;;;5.78;4.60;;;;;;;7.51;58.61;100159.02;1818962;78;25484;-54
2021/04/03 08:54:00;;;;;;;6.65;4.72;;;;;;;7.59;58.48;100161.02;1818889;78;25925;-50
2021/04/03 08:56:35;;;;;;;6.22;4.50;;;;;;;7.69;58.29;100164.11;1818933;78;25534;-50
2021/04/03 08:59:13;;;;;;;9.23;4.55;;;;;;;7.79;58.07;100160.47;1819119;78;25339;-51
2021/04/03 09:01:44;;;;;;;8.18;5.05;;;;;;;7.85;57.25;100158.75;1818193;78;25444;-52
2021/04/03 09:04:12;;;;;;;5.62;4.65;;;;;;;7.91;56.88;100148.69;1819058;78;25439;-53
2021/04/03 09:06:57;;;;;;;5.95;4.60;;;;;;;7.97;56.73;100161.55;1818906;78;25755;-54
2021/04/03 09:09:28;;;;;;;5.08;4.20;;;;;;;8.12;57.20;100163.98;1769401;80;25507;-52
2021/04/03 09:12:06;;;;;;;7.20;4.12;;;;;;;8.51;57.59;100165.49;1769304;81;25496;-53
2021/04/03 09:14:39;;;;;;;6.83;4.30;;;;;;;8.98;56.87;100159.99;1769403;81;25298;-51
2021/04/03 09:17:20;;;;;;;7.90;4.00;;;;;;;9.83;57.50;100171.64;1769468;81;25519;-53
2021/04/03 09:19:48;;;;;;;4.85;4.10;;;;;;;10.40;55.60;100171.05;1769466;81;25764;-52
2021/04/03 09:22:19;;;;;;;8.38;4.37;;;;;;;10.65;53.99;100170.94;1769228;81;25620;-52
2021/04/03 09:24:59;;;;;;;4.30;3.70;;;;;;;10.78;53.01;100180.86;1889086;76;34561;-53
2021/04/03 09:27:26;;;;;;;5.87;4.20;;;;;;;10.66;52.09;100179.30;1860008;77;25262;-51
2021/04/03 09:30:06;;;;;;;5.53;3.40;;;;;;;10.57;51.46;100185.21;1859974;77;25750;-54
2021/04/03 09:32:49;;;;;;;6.60;4.37;;;;;;;10.43;51.04;100179.91;1859848;77;25645;-50
2021/04/03 09:35:27;;;;;;;7.25;5.10;;;;;;;10.29;51.08;100182.10;1859970;77;25443;-48
2021/04/03 09:38:03;;;;;;;5.85;3.25;;;;;;;10.50;51.79;100184.87;1860063;77;25306;-50
2021/04/03 09:40:43;;;;;;;3.65;2.87;;;;;;;11.54;52.77;100177.05;1859989;77;25571;-52
2021/04/03 09:43:16;;;;;;;10.43;3.87;;;;;;;12.77;51.71;100178.17;1808063;79;25871;-51
2021/04/03 09:45:43;;;;;;;8.13;3.10;;;;;;;13.81;50.16;100180.81;1808227;79;25588;-50
2021/04/03 09:48:11;;;;;;;3.05;2.40;;;;;;;14.79;48.76;100174.03;1808254;79;25477;-52
2021/04/03 09:50:40;;;;;;;3.58;2.52;;;;;;;15.44;46.67;100170.80;1778813;79;25437;-51
2021/04/03 09:53:12;;;;;;;3.12;2.25;;;;;;;16.23;45.60;100166.74;1781987;79;25487;-53
2021/04/03 09:55:41;;;;;;;2.60;2.30;;;;;;;16.79;43.17;100167.94;1808247;79;25761;-51
2021/04/03 09:58:07;;;;;;;2.83;2.00;;;;;;;16.74;41.65;100183.23;1808129;79;25308;-53
2021/04/03 10:00:34;;;;;;;4.58;2.80;;;;;;;16.35;40.04;100172.70;1808170;79;25352;-51
2021/04/03 10:03:04;;;;;;;3.08;2.72;;;;;;;15.72;38.96;100181.50;1808069;79;25520;-54
2021/04/03 10:05:31;;;;;;;3.65;2.25;;;;;;;15.05;39.38;100176.39;1808260;79;25519;-54
2021/04/03 10:07:58;;;;;;;4.90;2.60;;;;;;;14.58;39.91;100180.34;1808118;79;25755;-53
2021/04/03 10:10:25;;;;;;;4.37;2.95;;;;;;;14.14;40.22;100181.38;1808077;79;25585;-50
2021/04/03 10:12:53;;;;;;;5.35;2.50;;;;;;;13.71;40.48;100186.66;1808095;79;25571;-51
2021/04/03 10:15:21;;;;;;;9.00;5.33;;;;;;;13.24;40.65;100184.88;1808230;79;25432;-54
2021/04/03 10:17:49;;;;;;;5.70;3.43;;;;;;;13.06;41.42;100186.34;1808563;79;25342;-53
2021/04/03 10:20:17;;;;;;;5.72;2.55;;;;;;;14.29;42.56;100178.02;1835156;77;25854;-50
2021/04/03 10:22:45;;;;;;;3.95;2.60;;;;;;;15.48;40.80;100176.34;1859725;77;25491;-50
2021/04/03 10:25:15;;;;;;;3.70;2.17;;;;;;;15.60;39.41;100178.25;1859953;77;25306;-51
2021/04/03 10:27:41;;;;;;;;;;;;;;;15.22;38.12;100172.63;1862683;77;25243;-50
2021/04/03 10:30:10;;;;;;;2.65;1.90;;;;;;;14.61;36.82;100174.80;1859860;76;25211;-51
2021/04/03 10:32:37;;;;;;;4.03;1.90;;;;;;;14.03;36.90;100178.84;1860008;77;25956;-53
2021/04/03 10:35:06;;;;;;;2.80;1.92;;;;;;;13.43;36.80;100179.84;1859488;77;25262;-51
2021/04/03 10:37:33;;;;;;;5.05;1.92;;;;;;;12.94;37.33;100172.68;1859422;77;25346;-54
2021/04/03 10:39:59;;;;;;;3.58;1.55;;;;;;;13.71;39.03;100170.35;1859312;77;25296;-51
2021/04/03 10:42:26;;;;;;;2.20;1.50;;;;;;;15.23;39.07;100172.87;1859310;77;25462;-52
2021/04/03 10:44:53;;;;;;;5.15;1.95;;;;;;;16.80;38.23;100161.34;1859272;77;26876;-53
2021/04/03 10:47:19;;;;;;;5.83;1.98;;;;;;;18.29;37.20;100154.47;1859154;77;25747;-51
2021/04/03 10:49:46;;;;;;;2.10;1.52;;;;;;;19.18;35.51;100168.59;1859218;77;25543;-51
2021/04/03 10:52:13;;;;;;;2.37;1.30;;;;;;;18.79;33.26;100171.52;1859092;77;25495;-53
2021/04/03 10:54:39;;;;;;;2.30;1.60;;;;;;;18.01;31.82;100168.41;1859286;77;25243;-51
2021/04/03 10:57:08;;;;;;;2.75;1.10;;;;;;;17.98;32.02;100166.98;1859318;77;26683;-53
2021/04/03 10:59:35;;;;;;;3.72;1.20;;;;;;;18.60;31.97;100161.43;1859189;77;25266;-50
2021/04/03 11:02:02;;;;;;;1.75;1.35;;;;;;;19.76;31.65;100157.80;1859244;77;25530;-51
2021/04/03 11:04:29;;;;;;;3.22;1.27;;;;;;;20.81;31.03;100145.26;1859303;77;25494;-55
2021/04/03 11:06:55;;;;;;;4.78;1.90;;;;;;;20.74;29.71;100158.95;1859388;77;25271;-52
2021/04/03 11:09:22;;;;;;;6.45;2.42;;;;;;;19.92;28.84;100165.25;1859193;77;26016;-52
2021/04/03 11:11:49;;;;;;;4.62;2.65;;;;;;;19.06;28.67;100177.83;1859040;77;25796;-55
2021/04/03 11:14:18;;;;;;;4.05;1.60;;;;;;;18.12;29.29;100176.84;1859338;77;25436;-52
2021/04/03 11:16:45;;;;;;;4.47;1.70;;;;;;;17.14;30.06;100178.12;1859468;77;25801;-53
2021/04/03 11:19:11;;;;;;;2.87;1.77;;;;;;;16.33;31.00;100190.80;1859295;77;25464;-54
2021/04/03 11:21:38;;;;;;;3.65;2.10;;;;;;;15.45;31.72;100190.08;1859202;77;26199;-51
2021/04/03 11:24:06;;;;;;;4.37;2.15;;;;;;;14.66;33.00;100190.91;1859005;77;25457;-52
2021/04/03 11:26:33;;;;;;;2.12;1.80;;;;;;;14.07;34.25;100186.58;1853932;77;25240;-50
2021/04/03 11:29:00;;;;;;;3.30;1.98;;;;;;;13.61;34.85;100187.84;1859177;77;25236;-52
2021/04/03 11:31:28;;;;;;;4.28;1.77;;;;;;;13.29;35.73;100188.75;1859244;77;25256;-52
2021/04/03 11:33:55;;;;;;;5.40;2.47;;;;;;;13.25;36.58;100187.27;1859236;77;25690;-53
2021/04/03 11:36:21;;;;;;;5.80;1.52;;;;;;;13.96;37.92;100186.18;1859103;76;25228;-53
2021/04/03 11:38:48;;;;;;;2.12;1.20;;;;;;;15.07;37.37;100187.77;1859216;77;25433;-53
2021/04/03 11:41:15;;;;;;;4.05;1.70;;;;;;;15.52;35.14;100187.34;1859218;77;25432;-53
2021/04/03 11:43:41;;;;;;;7.50;1.50;;;;;;;15.35;34.21;100181.59;1859167;77;25455;-52
2021/04/03 11:46:08;;;;;;;3.42;1.65;;;;;;;15.09;33.66;100184.91;1859186;77;26212;-53
2021/04/03 11:48:35;;;;;;;2.77;1.90;;;;;;;14.73;33.75;100183.00;1859158;77;25244;-52
2021/04/03 11:51:04;;;;;;;4.00;1.85;;;;;;;14.37;33.64;100174.42;1859309;77;25274;-49
2021/04/03 11:53:31;;;;;;;5.10;1.85;;;;;;;14.02;34.03;100175.34;1859292;76;35176;-53
2021/04/03 11:55:58;;;;;;;3.47;1.35;;;;;;;14.01;34.92;100166.39;1826416;77;25286;-53
2021/04/03 11:58:25;;;;;;;3.60;1.40;;;;;;;14.28;34.89;100165.53;1859222;77;28140;-52
2021/04/03 12:00:52;;;;;;;2.83;1.30;;;;;;;14.50;34.97;100173.06;1859105;77;25449;-51
2021/04/03 12:03:19;;;;;;;1.92;1.25;;;;;;;15.26;35.08;100165.38;1859079;77;25452;-51
2021/04/03 12:05:45;;;;;;;4.65;1.42;;;;;;;16.04;34.69;100164.11;1859183;77;25319;-55
2021/04/03 12:08:12;;;;;;;3.62;1.40;;;;;;;16.56;33.62;100162.30;1859238;77;25544;-51
2021/04/03 12:10:39;;;;;;;3.72;1.52;;;;;;;16.97;32.31;100170.32;1859181;77;26145;-51
2021/04/03 12:13:06;;;;;;;5.60;2.27;;;;;;;16.79;30.91;100169.31;1859040;77;25242;-50
2021/04/03 12:15:32;;;;;;;7.90;3.33;;;;;;;16.16;31.31;100180.20;1859180;77;25308;-52
2021/04/03 12:17:59;;;;;;;4.15;1.50;;;;;;;15.61;31.17;100182.54;1859241;77;25487;-54
2021/04/03 12:20:26;;;;;;;2.85;1.45;;;;;;;15.06;31.15;100190.25;1825527;77;25339;-52
2021/04/03 12:22:53;;;;;;;3.15;1.40;;;;;;;14.61;31.62;100181.61;1859117;77;25678;-50
2021/04/03 12:25:20;;;;;;;2.58;1.22;;;;;;;14.25;31.98;100182.55;1858955;77;25284;-53
2021/04/03 12:27:46;;;;;;;2.80;1.30;;;;;;;13.96;31.98;100183.45;1859219;77;25251;-52
2021/04/03 12:30:15;;;;;;;3.22;1.10;;;;;;;13.60;32.05;100188.96;1859120;77;25090;-52
2021/04/03 12:32:43;;;;;;;1.72;0.90;;;;;;;13.30;32.22;100187.64;1859277;77;25437;-50
2021/04/03 12:35:11;;;;;;;4.10;1.00;;;;;;;13.17;32.32;100188.67;1859174;76;25750;-53
2021/04/03 12:37:39;;;;;;;2.12;1.25;;;;;;;13.21;31.75;100187.70;1859230;77;25564;-53
2021/04/03 12:40:09;;;;;;;2.62;0.95;;;;;;;13.15;31.30;100186.28;1859136;77;25460;-54
2021/04/03 12:42:36;;;;;;;;;;;;;;;12.93;31.37;100181.14;1861844;77;25485;-52
2021/04/03 12:45:06;;;;;;;2.00;1.00;;;;;;;12.79;31.90;100185.45;1859163;77;25566;-52
2021/04/03 12:47:33;;;;;;;1.90;1.00;;;;;;;12.61;31.53;100177.36;1858541;77;25688;-48
2021/04/03 12:50:00;;;;;;;3.35;1.25;;;;;;;12.52;32.01;100184.17;1859142;77;25483;-53
2021/04/03 12:52:27;;;;;;;2.55;1.02;;;;;;;12.48;32.56;100184.60;1859062;77;25480;-51
2021/04/03 12:54:53;;;;;;;2.90;1.30;;;;;;;12.57;32.67;100188.64;1859226;77;25389;-53
2021/04/03 12:57:20;;;;;;;3.05;1.87;;;;;;;12.59;32.72;100187.75;1859193;77;25480;-50
2021/04/03 12:59:47;;;;;;;3.72;2.02;;;;;;;12.71;33.10;100185.14;1859156;77;25744;-55
2021/04/03 13:02:14;;;;;;;2.47;1.30;;;;;;;13.02;33.30;100191.39;1859031;77;25428;-51
2021/04/03 13:04:40;;;;;;;1.80;1.07;;;;;;;13.67;32.96;100185.14;1859097;77;25426;-53
2021/04/03 13:07:08;;;;;;;5.20;1.42;;;;;;;14.15;32.83;100176.19;1859214;77;25493;-54
2021/04/03 13:09:35;;;;;;;1.80;0.95;;;;;;;14.78;32.59;100180.05;1859112;77;25402;-54
2021/04/03 13:12:05;;;;;;;3.15;1.30;;;;;;;15.36;32.23;100179.89;1859142;77;26516;-53
2021/04/03 13:14:32;;;;;;;2.35;1.10;;;;;;;15.97;31.52;100176.75;1859238;77;25448;-50
2021/04/03 13:16:59;;;;;;;2.20;1.30;;;;;;;16.53;31.73;100178.05;1859116;77;25255;-52
2021/04/03 13:19:28;;;;;;;4.70;1.60;;;;;;;16.97;30.78;100180.70;1859224;76;25473;-51
2021/04/03 13:21:54;;;;;;;5.35;1.80;;;;;;;16.62;29.41;100179.23;1859220;77;25339;-50
2021/04/03 13:24:21;;;;;;;2.67;1.00;;;;;;;16.25;29.93;100196.62;1858956;77;25835;-50
2021/04/03 13:26:48;;;;;;;3.62;1.45;;;;;;;15.69;29.75;100189.79;1859023;77;25635;-51
2021/04/03 13:29:14;;;;;;;3.70;1.90;;;;;;;15.12;30.24;100199.22;1859129;77;25282;-53
2021/04/03 13:31:41;;;;;;;3.25;1.52;;;;;;;14.67;30.85;100210.99;1858991;77;25298;-51
2021/04/03 13:34:09;;;;;;;2.35;1.30;;;;;;;14.27;31.47;100212.94;1859222;77;25252;-52
2021/04/03 13:36:36;;;;;;;2.58;1.20;;;;;;;13.91;32.93;100216.30;1859207;77;26636;-53
2021/04/03 13:39:03;;;;;;;1.52;1.05;;;;;;;13.92;33.92;100208.38;1859132;77;25496;-51
2021/04/03 13:41:30;;;;;;;1.37;0.88;;;;;;;14.08;33.89;100220.78;1859068;77;25456;-52
2021/04/03 13:43:57;;;;;;;2.27;0.68;;;;;;;14.29;33.26;100215.32;1858990;77;25558;-54
2021/04/03 13:46:27;;;;;;;2.77;1.05;;;;;;;14.55;33.07;100217.75;1859243;77;25491;-52
2021/04/03 13:48:54;;;;;;;1.90;0.80;;;;;;;14.79;32.80;100214.30;1859235;77;26617;-51
2021/04/03 13:51:21;;;;;;;0.85;0.40;;;;;;;15.05;32.09;100227.60;1858979;77;25591;-52
2021/04/03 13:53:48;;;;;;;0.80;0.40;;;;;;;15.23;31.83;100217.25;1859155;77;25970;-54
2021/04/03 13:56:15;;;;;;;0.93;0.60;;;;;;;15.42;31.18;100219.38;1859082;76;25513;-50
2021/04/03 13:58:42;;;;;;;0.90;0.60;;;;;;;15.58;31.13;100214.58;1859092;76;25472;-50
2021/04/03 14:01:08;;;;;;;1.12;0.50;;;;;;;15.84;31.08;100225.90;1859109;77;25674;-51
2021/04/03 14:03:35;;;;;;;1.37;0.68;;;;;;;16.02;30.12;100222.33;1858886;76;25307;-50
2021/04/03 14:06:07;;;;;;;2.20;1.22;;;;;;;16.19;30.06;100224.51;1859078;77;25280;-53
2021/04/03 14:08:31;;;;;;;3.95;1.47;;;;;;;16.33;29.79;100229.55;1858668;77;25282;-52
2021/04/03 14:10:57;;;;;;;1.85;1.20;;;;;;;16.43;30.03;100227.70;1859234;76;25433;-54
2021/04/03 14:13:23;;;;;;;4.83;1.30;;;;;;;16.44;29.61;100232.79;1859162;77;25746;-51
2021/04/03 14:15:50;;;;;;;9.25;2.08;;;;;;;15.96;29.88;100250.19;1859231;77;25417;-51
2021/04/03 14:18:18;;;;;;;3.72;1.52;;;;;;;15.32;30.94;100256.64;1859365;77;25477;-51
2021/04/03 14:20:45;;;;;;;2.80;1.30;;;;;;;15.05;31.63;100259.47;1859203;77;25251;-52
2021/04/03 14:23:13;;;;;;;3.77;1.20;;;;;;;14.85;32.22;100263.33;1859296;77;25443;-52
2021/04/03 14:25:39;;;;;;;4.35;2.00;;;;;;;14.53;32.67;100272.52;1840978;76;25759;-54
2021/04/03 14:28:06;;;;;;;4.45;1.80;;;;;;;14.26;33.45;100265.73;1833907;78;25492;-54
2021/04/03 14:30:32;;;;;;;5.83;3.20;;;;;;;14.19;33.83;100269.00;1834099;78;25328;-54
2021/04/03 14:32:59;;;;;;;3.62;1.60;;;;;;;14.08;34.13;100268.38;1833845;78;25231;-53
2021/04/03 14:35:25;;;;;;;2.87;1.50;;;;;;;13.91;34.23;100260.61;1834014;78;25541;-53
2021/04/03 14:37:52;;;;;;;4.40;2.08;;;;;;;13.77;34.50;100266.86;1834045;78;25903;-55
2021/04/03 14:40:19;;;;;;;4.05;1.90;;;;;;;13.72;34.93;100267.84;1833888;78;25464;-54
2021/04/03 14:42:46;;;;;;;2.85;1.92;;;;;;;13.69;35.10;100264.45;1833899;78;25241;-50
2021/04/03 14:45:13;;;;;;;2.72;1.50;;;;;;;13.58;34.86;100265.38;1833914;78;25533;-50
2021/04/03 14:47:40;;;;;;;2.85;1.60;;;;;;;13.50;34.77;100266.26;1834067;78;25454;-54
2021/04/03 14:50:09;;;;;;;1.47;1.07;;;;;;;13.42;34.80;100264.38;1834128;78;26131;-52
2021/04/03 14:52:36;;;;;;;1.00;0.90;;;;;;;13.26;34.73;100262.73;1833829;76;25521;-53
2021/04/03 14:55:04;;;;;;;3.37;1.35;;;;;;;13.07;34.89;100265.30;1834009;78;25308;-51
2021/04/03 14:57:30;;;;;;;2.98;1.10;;;;;;;12.97;35.09;100264.30;1833529;77;25421;-50
2021/04/03 14:59:57;;;;;;;5.25;1.45;;;;;;;12.92;35.30;100261.77;1834013;78;25240;-51
2021/04/03 15:02:24;;;;;;;2.45;1.37;;;;;;;12.78;35.28;100267.41;1833938;78;25679;-50
2021/04/03 15:04:51;;;;;;;2.85;1.50;;;;;;;12.67;35.65;100268.33;1833875;78;25658;-50
2021/04/03 15:07:17;;;;;;;4.12;1.72;;;;;;;12.64;35.81;100268.97;1834033;78;25221;-52
2021/04/03 15:09:44;;;;;;;4.05;1.42;;;;;;;12.54;35.46;100265.81;1833900;78;25443;-55
2021/04/03 15:12:11;;;;;;;2.70;1.30;;;;;;;12.46;35.49;100270.94;1833956;78;25666;-49
2021/04/03 15:14:38;;;;;;;1.90;1.40;;;;;;;12.33;35.65;100276.77;1833986;78;25790;-54
2021/04/03 15:17:05;;;;;;;2.83;1.57;;;;;;;12.26;36.07;100280.53;1833847;78;25430;-54
2021/04/03 15:19:31;;;;;;;3.42;1.17;;;;;;;12.18;36.07;100277.83;1834008;78;25296;-54
2021/04/03 15:21:58;;;;;;;2.05;0.93;;;;;;;12.14;36.13;100278.46;1833808;78;25299;-54
2021/04/03 15:24:24;;;;;;;3.15;1.40;;;;;;;12.05;36.33;100279.57;1835610;76;25449;-52
2021/04/03 15:26:51;;;;;;;2.60;1.55;;;;;;;11.93;36.15;100278.84;1859210;77;25900;-52
2021/04/03 15:29:18;;;;;;;41.28;20.17;;;;;;;11.78;35.87;100281.42;1859149;77;25346;-53
2021/04/03 15:31:45;;;;;;;3.22;1.85;;;;;;;11.67;36.10;100286.93;1859154;77;25557;-51
2021/04/03 15:34:11;;;;;;;2.65;1.20;;;;;;;11.58;36.11;100290.41;1859105;77;25311;-51
2021/04/03 15:36:38;;;;;;;2.65;1.40;;;;;;;11.48;36.09;100288.56;1859278;77;25487;-52
2021/04/03 15:39:04;;;;;;;2.45;1.10;;;;;;;11.39;36.15;100290.69;1859309;77;26812;-50
2021/04/03 15:41:31;;;;;;;2.90;1.50;;;;;;;11.29;36.33;100285.56;1859013;77;25736;-49
2021/04/03 15:43:58;;;;;;;2.25;1.37;;;;;;;11.16;36.45;100291.87;1859080;77;25216;-54
2021/04/03 15:46:25;;;;;;;2.08;1.37;;;;;;;11.01;36.73;100291.73;1859141;77;25440;-51
2021/04/03 15:48:54;;;;;;;5.25;1.62;;;;;;;10.89;36.72;100289.60;1859218;77;25449;-49
2021/04/03 15:51:22;;;;;;;3.30;1.12;;;;;;;10.72;36.86;100284.90;1859114;77;25702;-50
2021/04/03 15:53:49;;;;;;;2.98;1.62;;;;;;;10.52;37.09;100285.41;1859107;77;25323;-50
2021/04/03 15:56:16;;;;;;;3.72;2.50;;;;;;;10.38;37.37;100285.48;1859236;77;25495;-51
2021/04/03 15:58:46;;;;;;;10.48;4.45;;;;;;;10.20;37.39;100288.03;1859124;77;25245;-51
2021/04/03 16:01:13;;;;;;;;;;;;;;;10.03;37.83;100283.29;1862046;77;25286;-52
2021/04/03 16:03:40;;;;;;;4.17;1.72;;;;;;;9.87;38.02;100289.56;1859124;77;26809;-51
2021/04/03 16:06:06;;;;;;;3.02;1.65;;;;;;;9.66;38.03;100297.32;1859145;76;25482;-51
2021/04/03 16:08:33;;;;;;;3.10;1.82;;;;;;;9.50;38.38;100291.98;1859222;77;25556;-50
2021/04/03 16:11:01;;;;;;;5.30;2.00;;;;;;;9.38;38.71;100298.44;1859132;77;25262;-52
2021/04/03 16:13:28;;;;;;;3.00;1.77;;;;;;;9.22;38.97;100297.39;1859125;77;25312;-50
2021/04/03 16:15:55;;;;;;;3.62;1.90;;;;;;;9.05;39.34;100295.84;1826365;77;25706;-54
2021/04/03 16:18:22;;;;;;;3.22;1.65;;;;;;;8.86;39.64;100291.31;1859092;77;25419;-51
2021/04/03 16:20:49;;;;;;;4.00;1.52;;;;;;;8.71;40.10;100291.59;1859191;77;25500;-50
2021/04/03 16:23:16;;;;;;;2.67;1.72;;;;;;;8.54;40.38;100291.58;1858970;77;25456;-53
2021/04/03 16:25:43;;;;;;;5.62;2.77;;;;;;;8.40;40.76;100279.94;1847057;77;25244;-54
2021/04/03 16:28:09;;;;;;;9.53;3.58;;;;;;;8.29;40.95;100283.88;1833924;78;28068;-51
2021/04/03 16:30:37;;;;;;;5.35;3.15;;;;;;;8.21;41.00;100288.05;1833828;78;25472;-52
2021/04/03 16:33:03;;;;;;;5.62;2.33;;;;;;;8.15;41.78;100285.17;1833814;78;25268;-50
2021/04/03 16:35:30;;;;;;;5.47;2.70;;;;;;;8.09;42.17;100298.45;1833877;76;25425;-53
2021/04/03 16:37:59;;;;;;;8.05;3.08;;;;;;;7.99;42.47;100296.73;1833952;78;25272;-50
2021/04/03 16:40:27;;;;;;;13.10;7.10;;;;;;;7.94;42.96;100301.63;1834166;78;25886;-52
2021/04/03 16:42:54;;;;;;;14.73;7.55;;;;;;;7.88;43.07;100304.68;1833843;76;25576;-51
2021/04/03 16:45:22;;;;;;;14.63;6.60;;;;;;;7.82;43.64;100302.05;1833834;78;25382;-54
2021/04/03 16:47:49;;;;;;;16.05;7.47;;;;;;;7.71;44.19;100303.27;1833945;78;25276;-51
2021/04/03 16:50:16;;;;;;;14.70;6.95;;;;;;;7.63;44.13;100309.33;1834043;78;25441;-53
2021/04/03 16:52:43;;;;;;;16.17;7.10;;;;;;;7.53;44.57;100316.97;1833861;78;26220;-50
2021/04/03 16:55:11;;;;;;;10.70;6.37;;;;;;;7.43;44.85;100313.84;1833762;78;25497;-50
2021/04/03 16:57:39;;;;;;;5.92;3.87;;;;;;;7.36;45.30;100322.02;1834172;78;25484;-50
2021/04/03 17:00:08;;;;;;;4.95;3.60;;;;;;;7.26;45.45;100318.34;1833914;78;25445;-51
2021/04/03 17:02:35;;;;;;;10.28;6.40;;;;;;;7.18;45.56;100323.55;1833866;78;25522;-50
2021/04/03 17:05:04;;;;;;;8.65;5.62;;;;;;;7.09;45.95;100324.72;1833888;78;25772;-51
2021/04/03 17:07:32;;;;;;;6.45;4.00;;;;;;;7.01;46.27;100325.33;1833898;78;25486;-53
2021/04/03 17:09:59;;;;;;;8.45;4.35;;;;;;;6.90;46.43;100324.09;1833893;78;25306;-54
2021/04/03 17:12:26;;;;;;;3.98;2.80;;;;;;;6.82;46.68;100326.59;1833824;78;25469;-53
2021/04/03 17:14:53;;;;;;;8.05;3.65;;;;;;;6.74;46.90;100330.67;1834049;78;25402;-54
2021/04/03 17:17:19;;;;;;;5.17;2.92;;;;;;;6.64;47.02;100329.42;1833948;77;25766;-53
2021/04/03 17:19:46;;;;;;;5.40;2.70;;;;;;;6.52;47.14;100325.22;1833812;78;25800;-53
2021/04/03 17:22:12;;;;;;;4.97;2.80;;;;;;;6.43;47.39;100331.47;1833851;78;25294;-53
2021/04/03 17:24:39;;;;;;;6.25;2.87;;;;;;;6.36;47.46;100336.61;1833808;78;25436;-51
2021/04/03 17:27:07;;;;;;;5.10;2.90;;;;;;;6.30;47.83;100335.05;1834024;76;25259;-54
2021/04/03 17:29:34;;;;;;;6.77;3.70;;;;;;;6.24;48.23;100337.50;1834296;78;26604;-53
2021/04/03 17:32:01;;;;;;;5.95;3.00;;;;;;;6.17;48.69;100347.20;1833671;78;25818;-54
2021/04/03 17:34:27;;;;;;;7.70;5.05;;;;;;;6.16;48.46;100350.17;1834048;78;25413;-51